Time;durP1;ratioP1;P1;durP2;ratioP2;P2;SDS_P1;SDS_P2;PMS_P1;PMS_P2;Temp;Humidity;BMP_temperature;BMP_pressure;BME280_temperature;BME280_humidity;BME280_pressure;Samples;Min_cycle;Max_cycle;Signal;HPM_P1;HPM_P2
2022/01/24 00:00:56;;;;;;;21.70;15.40;;;0.90;99.90;;;;;;5109323;28;20578;-62
2022/01/24 00:03:23;;;;;;;14.57;11.83;;;0.90;99.90;;;;;;5109428;28;20461;-62
2022/01/24 00:05:50;;;;;;;17.47;12.30;;;1.00;99.90;;;;;;5109465;28;20477;-62
2022/01/24 00:08:17;;;;;;;13.70;10.93;;;0.90;99.90;;;;;;5109776;28;20456;-62
2022/01/24 00:10:47;;;;;;;15.30;10.80;;;1.00;99.90;;;;;;5109110;28;20640;-61
2022/01/24 00:16:34;;;;;;;15.83;11.67;;;0.90;99.90;;;;;;5086862;28;20513;-61
2022/01/24 00:27:13;;;;;;;14.70;11.53;;;0.70;99.90;;;;;;5086806;28;20806;-61
2022/01/24 00:29:40;;;;;;;16.10;10.80;;;0.70;99.90;;;;;;5086376;28;20539;-61
2022/01/24 00:32:09;;;;;;;17.30;10.50;;;0.70;99.90;;;;;;5086468;28;20496;-60
2022/01/24 00:34:36;;;;;;;12.97;10.00;;;0.70;99.90;;;;;;5086836;28;20482;-60
2022/01/24 00:37:03;;;;;;;14.40;10.77;;;0.80;99.90;;;;;;5086265;28;20450;-61
2022/01/24 00:39:30;;;;;;;13.70;10.33;;;0.80;99.90;;;;;;5086059;28;20453;-61
2022/01/24 00:42:10;;;;;;;14.60;10.47;;;0.80;99.90;;;;;;5086178;28;20467;-61
2022/01/24 00:44:50;;;;;;;14.13;9.93;;;0.70;99.90;;;;;;5086084;28;20455;-60
2022/01/24 00:47:24;;;;;;;13.60;10.80;;;0.60;99.90;;;;;;5086465;28;20451;-61
2022/01/24 00:53:00;;;;;;;12.00;9.27;;;0.60;99.90;;;;;;5086049;28;20449;-61
2022/01/24 00:53:11;;;;;;;12.83;10.50;;;0.60;99.90;;;;;;5085906;28;20541;-61
2022/01/24 00:55:38;;;;;;;17.03;10.77;;;0.60;99.90;;;;;;5085951;28;20481;-61
2022/01/24 00:58:05;;;;;;;14.40;10.77;;;0.60;99.90;;;;;;5086183;28;20455;-61
2022/01/24 01:00:32;;;;;;;13.70;10.67;;;0.50;99.90;;;;;;5085937;28;20832;-61
2022/01/24 01:03:00;;;;;;;15.07;11.47;;;0.50;99.90;;;;;;5085863;28;20469;-61
2022/01/24 01:05:39;;;;;;;13.80;10.90;;;0.50;99.90;;;;;;5085788;28;20443;-61
2022/01/24 01:18:07;;;;;;;14.57;10.87;;;0.50;99.90;;;;;;5085661;28;20445;-61
2022/01/24 01:19:15;;;;;;;12.80;9.93;;;0.30;99.90;;;;;;5085287;28;20488;-61
2022/01/24 01:21:42;;;;;;;12.10;9.00;;;0.30;99.90;;;;;;5085736;28;20479;-61
2022/01/24 01:24:09;;;;;;;15.37;10.60;;;0.30;99.90;;;;;;5085372;28;20447;-61
2022/01/24 01:26:40;;;;;;;14.10;10.53;;;0.40;99.90;;;;;;5078492;28;20435;-61
2022/01/24 01:29:13;;;;;;;12.50;9.67;;;0.40;99.90;;;;;;5072060;28;20447;-61
2022/01/24 01:31:46;;;;;;;14.93;10.00;;;0.40;99.90;;;;;;5072087;28;20903;-61
2022/01/24 01:34:33;;;;;;;12.40;10.20;;;0.40;99.90;;;;;;5072097;28;20513;-61
2022/01/24 01:37:22;;;;;;;13.30;9.83;;;0.40;99.90;;;;;;5071914;28;20826;-61
2022/01/24 01:40:12;;;;;;;13.60;9.73;;;0.40;99.90;;;;;;5071588;28;20467;-61
2022/01/24 01:54:14;;;;;;;15.00;10.50;;;0.50;99.90;;;;;;5051694;28;20803;-61
2022/01/24 01:56:42;;;;;;;17.10;11.10;;;0.50;99.90;;;;;;5071606;28;20487;-61
2022/01/24 01:59:08;;;;;;;16.10;11.20;;;0.40;99.90;;;;;;5071298;28;20949;-60
2022/01/24 02:01:35;;;;;;;17.90;10.70;;;0.40;99.90;;;;;;5071336;28;20843;-61
2022/01/24 02:04:05;;;;;;;14.97;10.20;;;0.40;99.90;;;;;;5071592;28;20462;-60
2022/01/24 02:06:33;;;;;;;11.80;9.90;;;0.40;99.90;;;;;;5071317;28;20628;-61
2022/01/24 02:09:01;;;;;;;16.93;10.40;;;0.40;99.90;;;;;;5071027;28;20550;-61
2022/01/24 02:11:28;;;;;;;14.40;9.50;;;0.40;99.90;;;;;;5070689;28;20502;-61
2022/01/24 02:13:58;;;;;;;15.50;8.40;;;0.30;99.90;;;;;;5071062;28;20448;-61
2022/01/24 02:16:33;;;;;;;13.70;9.97;;;0.30;99.90;;;;;;5071174;28;20578;-61
2022/01/24 02:19:19;;;;;;;13.60;10.20;;;0.30;99.90;;;;;;5071209;28;20451;-61
2022/01/24 02:22:05;;;;;;;13.77;9.53;;;0.30;99.90;;;;;;5071416;28;20467;-62
2022/01/24 02:24:40;;;;;;;12.33;9.53;;;0.20;99.90;;;;;;5071239;28;20797;-61
2022/01/24 02:27:08;;;;;;;16.43;11.03;;;0.20;99.90;;;;;;5071402;28;20453;-62
2022/01/24 02:29:49;;;;;;;15.30;10.13;;;0.10;99.90;;;;;;5071126;28;20453;-62
2022/01/24 02:32:16;;;;;;;16.40;11.27;;;0.10;99.90;;;;;;5071129;28;21205;-61
2022/01/24 02:34:46;;;;;;;16.00;10.23;;;0.10;99.90;;;;;;5071129;28;20454;-61
2022/01/24 02:37:18;;;;;;;12.70;9.40;;;0.00;99.90;;;;;;5070539;28;20501;-61
2022/01/24 02:39:49;;;;;;;13.00;10.10;;;0.00;99.90;;;;;;5070143;28;20901;-61
2022/01/24 02:53:22;;;;;;;17.37;13.73;;;0.00;99.90;;;;;;5044153;28;20483;-61
2022/01/24 02:55:49;;;;;;;18.10;13.27;;;-0.20;99.90;;;;;;5070489;28;20847;-61
2022/01/24 02:58:17;;;;;;;18.00;13.33;;;-0.10;99.90;;;;;;5070538;28;20447;-61
2022/01/24 03:00:46;;;;;;;19.23;12.83;;;-0.10;99.90;;;;;;5070339;28;20459;-61
2022/01/24 03:03:13;;;;;;;17.17;12.33;;;-0.20;99.90;;;;;;5070532;28;20871;-61
2022/01/24 03:05:40;;;;;;;15.57;12.37;;;-0.30;99.90;;;;;;5070787;28;20438;-61
2022/01/24 03:08:07;;;;;;;17.00;11.43;;;-0.20;99.90;;;;;;5070508;28;20530;-61
2022/01/24 03:10:39;;;;;;;15.70;11.40;;;-0.20;99.90;;;;;;5070417;28;20467;-61
2022/01/24 03:13:21;;;;;;;17.50;11.80;;;-0.30;99.90;;;;;;5070554;28;20544;-61
2022/01/24 03:15:49;;;;;;;15.47;11.77;;;-0.30;99.90;;;;;;5070871;28;20519;-61
2022/01/24 03:18:17;;;;;;;14.37;10.87;;;-0.30;99.90;;;;;;5070620;28;20767;-62
2022/01/24 03:20:45;;;;;;;22.70;11.80;;;-0.30;99.90;;;;;;5069750;28;20461;-61
2022/01/24 03:23:12;;;;;;;18.87;11.90;;;-0.30;99.90;;;;;;5069848;28;20502;-61
2022/01/24 03:25:41;;;;;;;16.33;11.77;;;-0.30;99.90;;;;;;5069973;28;20443;-62
2022/01/24 03:28:09;;;;;;;16.93;11.63;;;-0.30;99.90;;;;;;5069682;28;20453;-61
2022/01/24 03:30:36;;;;;;;14.57;11.20;;;-0.30;99.90;;;;;;5069527;28;20546;-61
2022/01/24 03:33:04;;;;;;;16.90;12.10;;;-0.30;99.90;;;;;;5069709;28;20466;-61
2022/01/24 03:35:32;;;;;;;16.57;11.70;;;-0.30;99.90;;;;;;5069626;28;20514;-60
2022/01/24 03:37:59;;;;;;;16.60;13.60;;;-0.30;99.90;;;;;;5069823;28;20453;-61
2022/01/24 03:40:26;;;;;;;19.30;13.50;;;-0.30;99.90;;;;;;5069282;28;20454;-61
2022/01/24 03:42:54;;;;;;;16.70;11.47;;;-0.30;99.90;;;;;;5069739;28;20464;-61
2022/01/24 03:45:35;;;;;;;18.43;12.57;;;-0.30;99.90;;;;;;5069669;28;20435;-61
2022/01/24 03:48:06;;;;;;;14.80;11.83;;;-0.30;99.90;;;;;;5069576;28;20884;-61
2022/01/24 03:50:33;;;;;;;16.00;11.30;;;-0.30;99.90;;;;;;5068859;28;20455;-61
2022/01/24 03:53:00;;;;;;;15.73;11.83;;;-0.30;99.90;;;;;;5069113;28;20470;-62
2022/01/24 03:55:27;;;;;;;16.67;12.10;;;-0.50;99.90;;;;;;5069436;28;20920;-61
2022/01/24 03:57:55;;;;;;;13.03;10.60;;;-0.50;99.90;;;;;;5069226;28;20450;-61
2022/01/24 04:00:22;;;;;;;15.97;11.87;;;-0.60;99.90;;;;;;5068919;28;20444;-61
2022/01/24 04:02:49;;;;;;;14.20;10.60;;;-0.60;99.90;;;;;;5069239;28;20467;-61
2022/01/24 04:05:16;;;;;;;18.13;11.63;;;-0.70;99.90;;;;;;5069204;28;20479;-61
2022/01/24 04:07:44;;;;;;;14.17;11.00;;;-0.60;99.90;;;;;;5069305;28;20825;-61
2022/01/24 04:10:12;;;;;;;19.40;12.03;;;-0.70;99.90;;;;;;5068810;28;20443;-61
2022/01/24 04:12:40;;;;;;;14.90;11.60;;;-0.60;99.90;;;;;;5069062;28;20474;-61
2022/01/24 04:15:23;;;;;;;15.43;12.20;;;-0.60;99.90;;;;;;5069310;28;20467;-61
2022/01/24 04:17:58;;;;;;;14.40;10.97;;;-0.60;99.90;;;;;;5069657;28;20442;-61
2022/01/24 04:23:18;;;;;;;13.77;10.63;;;-0.60;99.90;;;;;;5069367;28;20466;-62
2022/01/24 04:25:45;;;;;;;14.57;12.07;;;-0.70;99.90;;;;;;5069258;28;20451;-61
2022/01/24 04:28:11;;;;;;;18.10;11.83;;;-0.70;99.90;;;;;;5070031;28;20539;-61
2022/01/24 04:30:40;;;;;;;13.43;11.70;;;-0.70;99.90;;;;;;5069444;28;20451;-61
2022/01/24 04:33:07;;;;;;;15.13;11.33;;;-0.70;99.90;;;;;;5069391;28;20535;-61
2022/01/24 04:35:34;;;;;;;16.87;12.60;;;-0.70;99.90;;;;;;5069386;28;20482;-61
2022/01/24 04:38:01;;;;;;;14.43;11.30;;;-0.80;99.90;;;;;;5069726;28;20443;-61
2022/01/24 04:40:28;;;;;;;15.03;11.63;;;-0.80;99.90;;;;;;5069289;28;20483;-61
2022/01/24 04:43:04;;;;;;;17.50;11.53;;;-0.70;99.90;;;;;;5069142;28;20474;-61
2022/01/24 04:45:49;;;;;;;19.37;13.97;;;-0.70;99.90;;;;;;5068972;28;20450;-61
2022/01/24 04:51:13;;;;;;;20.37;13.97;;;-0.60;99.90;;;;;;5068925;28;20497;-62
2022/01/24 04:54:04;;;;;;;19.73;13.30;;;-0.60;99.90;;;;;;5069271;28;20815;-62
2022/01/24 04:56:31;;;;;;;17.90;12.80;;;-0.60;99.90;;;;;;5068987;28;20485;-62
2022/01/24 04:58:58;;;;;;;18.27;13.63;;;-0.60;99.90;;;;;;5068761;28;20824;-62
2022/01/24 05:01:25;;;;;;;20.33;14.13;;;-0.60;99.90;;;;;;5069534;28;20455;-62
2022/01/24 05:03:53;;;;;;;16.43;12.63;;;-0.60;99.90;;;;;;5072638;28;20620;-62
2022/01/24 05:06:20;;;;;;;20.63;14.30;;;-0.60;99.90;;;;;;5072783;28;20461;-62
2022/01/24 05:08:47;;;;;;;18.50;13.73;;;-0.60;99.90;;;;;;5072616;28;20462;-62
2022/01/24 05:11:18;;;;;;;16.23;11.53;;;-0.70;99.90;;;;;;5072003;28;20443;-61
2022/01/24 05:24:40;;;;;;;16.50;12.40;;;-0.90;99.90;;;;;;5072174;28;20445;-61
2022/01/24 05:27:08;;;;;;;14.87;10.93;;;-0.90;99.90;;;;;;5072130;28;20443;-61
2022/01/24 05:29:34;;;;;;;13.70;10.50;;;-1.00;99.90;;;;;;5071411;28;20980;-61
2022/01/24 05:32:01;;;;;;;14.90;11.30;;;-1.00;99.90;;;;;;5072172;28;20485;-67
2022/01/24 05:34:29;;;;;;;13.97;11.97;;;-1.00;99.90;;;;;;5072110;28;20518;-64
2022/01/24 05:36:56;;;;;;;17.70;12.10;;;-1.10;99.90;;;;;;5072201;28;20483;-61
2022/01/24 05:39:23;;;;;;;20.83;11.60;;;-1.00;99.90;;;;;;5071814;28;20453;-61
2022/01/24 05:41:50;;;;;;;18.80;13.57;;;-1.00;99.90;;;;;;5072102;28;20459;-62
2022/01/24 05:44:17;;;;;;;18.60;12.40;;;-0.90;99.90;;;;;;5071947;28;20844;-61
2022/01/24 05:46:44;;;;;;;16.40;12.30;;;-0.70;99.90;;;;;;5071724;28;20812;-61
2022/01/24 05:49:11;;;;;;;19.67;13.73;;;-0.60;99.90;;;;;;5071579;28;20448;-61
2022/01/24 05:51:39;;;;;;;17.80;13.03;;;-0.50;99.90;;;;;;5071859;28;20558;-62
2022/01/24 05:54:07;;;;;;;21.97;13.90;;;-0.40;99.90;;;;;;5071793;28;20558;-62
2022/01/24 05:56:34;;;;;;;23.20;14.07;;;-0.40;99.90;;;;;;5071703;28;20479;-62
2022/01/24 05:59:01;;;;;;;17.63;12.47;;;-0.30;99.90;;;;;;5071498;28;20450;-61
2022/01/24 06:01:28;;;;;;;16.07;12.60;;;-0.20;99.90;;;;;;5070899;28;20466;-62
2022/01/24 06:03:55;;;;;;;19.33;13.10;;;-0.10;99.90;;;;;;5071421;28;20968;-62
2022/01/24 06:06:22;;;;;;;20.87;13.00;;;-0.10;99.90;;;;;;5071467;28;20450;-62
2022/01/24 06:08:50;;;;;;;15.07;11.63;;;-0.20;99.90;;;;;;5070991;28;20447;-62
2022/01/24 06:11:17;;;;;;;16.93;12.33;;;-0.10;99.90;;;;;;5071037;28;20456;-62
2022/01/24 06:13:49;;;;;;;16.73;11.73;;;-0.10;99.90;;;;;;5070482;28;20486;-62
2022/01/24 06:16:16;;;;;;;15.33;11.37;;;-0.10;99.90;;;;;;5070932;28;20489;-62
2022/01/24 06:18:43;;;;;;;17.13;12.37;;;-0.10;99.90;;;;;;5068976;28;20826;-62
2022/01/24 06:21:10;;;;;;;16.03;11.40;;;-0.10;99.90;;;;;;5069338;28;20466;-62
2022/01/24 06:23:37;;;;;;;16.30;11.40;;;-0.10;99.90;;;;;;5068132;28;20463;-62
2022/01/24 06:26:05;;;;;;;15.17;12.07;;;0.00;99.90;;;;;;5066368;28;20462;-61
2022/01/24 06:28:32;;;;;;;16.20;11.40;;;0.00;99.90;;;;;;5065739;28;20486;-61
2022/01/24 06:30:59;;;;;;;15.13;11.30;;;0.00;99.90;;;;;;5062562;28;20456;-61
2022/01/24 06:33:26;;;;;;;15.43;11.50;;;-0.10;99.90;;;;;;5068623;28;20470;-61
2022/01/24 06:35:53;;;;;;;14.27;11.60;;;-0.10;99.90;;;;;;5067275;28;20845;-61
2022/01/24 06:38:20;;;;;;;15.90;12.07;;;0.00;99.90;;;;;;5069983;28;20443;-62
2022/01/24 06:40:47;;;;;;;18.60;12.60;;;0.00;99.90;;;;;;5061369;28;20470;-61
2022/01/24 06:43:15;;;;;;;16.27;12.10;;;0.10;99.90;;;;;;5063601;28;20482;-61
2022/01/24 06:45:42;;;;;;;15.97;12.30;;;0.20;99.90;;;;;;5063709;28;20459;-61
2022/01/24 06:48:09;;;;;;;15.80;12.70;;;0.20;99.90;;;;;;5060276;28;20447;-62
2022/01/24 06:50:36;;;;;;;18.57;12.93;;;0.30;99.90;;;;;;5060684;28;20440;-61
2022/01/24 06:53:03;;;;;;;16.73;11.63;;;0.30;99.90;;;;;;5064083;28;20498;-61
2022/01/24 06:55:30;;;;;;;19.20;12.70;;;0.40;99.90;;;;;;5066169;28;20447;-61
2022/01/24 06:57:57;;;;;;;17.53;12.40;;;0.50;99.90;;;;;;5054335;28;20493;-62
2022/01/24 07:00:26;;;;;;;13.77;11.50;;;0.50;99.90;;;;;;5065079;28;20443;-61
2022/01/24 07:02:53;;;;;;;18.37;13.23;;;0.50;99.90;;;;;;5068223;28;20471;-62
2022/01/24 07:05:20;;;;;;;15.60;13.13;;;0.60;99.90;;;;;;5068477;28;20455;-62
2022/01/24 07:07:47;;;;;;;15.33;11.80;;;0.60;99.90;;;;;;5067995;28;20444;-62
2022/01/24 07:10:15;;;;;;;19.67;13.97;;;0.60;99.90;;;;;;5067764;28;20471;-61
2022/01/24 07:12:42;;;;;;;21.10;14.00;;;0.60;99.90;;;;;;5068305;28;20467;-61
2022/01/24 07:15:13;;;;;;;16.17;11.97;;;0.70;99.90;;;;;;5069346;28;21099;-62
2022/01/24 07:18:11;;;;;;;20.00;12.83;;;0.70;99.90;;;;;;5069343;28;20569;-62
2022/01/24 07:20:38;;;;;;;14.83;11.90;;;0.80;99.90;;;;;;5069236;28;20447;-62
2022/01/24 07:23:05;;;;;;;15.53;12.27;;;0.80;99.90;;;;;;5069390;28;20930;-62
2022/01/24 07:25:32;;;;;;;17.60;13.00;;;0.80;99.90;;;;;;5068965;28;20455;-62
2022/01/24 07:27:59;;;;;;;17.50;13.17;;;0.90;99.90;;;;;;5069594;28;20554;-61
2022/01/24 07:30:26;;;;;;;16.43;10.97;;;0.90;99.90;;;;;;5069043;28;20444;-62
2022/01/24 07:32:55;;;;;;;16.50;12.90;;;1.00;99.90;;;;;;5069328;28;20577;-62
2022/01/24 07:35:22;;;;;;;16.07;11.70;;;1.00;99.90;;;;;;5069408;28;20462;-61
2022/01/24 07:37:49;;;;;;;16.80;12.57;;;1.10;99.90;;;;;;5069226;28;20491;-62
2022/01/24 07:40:16;;;;;;;16.87;12.23;;;1.20;99.90;;;;;;5069334;28;20546;-62
2022/01/24 07:42:55;;;;;;;15.23;13.03;;;1.20;99.90;;;;;;5069628;28;20471;-63
2022/01/24 07:45:24;;;;;;;22.60;11.90;;;1.10;99.90;;;;;;5069504;28;20965;-63
2022/01/24 07:47:51;;;;;;;16.57;12.57;;;1.20;99.90;;;;;;5069354;28;20443;-62
2022/01/24 07:50:23;;;;;;;19.90;11.93;;;1.30;99.90;;;;;;5069347;28;20451;-62
2022/01/24 07:52:50;;;;;;;16.33;12.00;;;1.20;99.90;;;;;;5069365;28;21015;-63
2022/01/24 07:55:17;;;;;;;17.73;12.40;;;1.30;99.90;;;;;;5069487;28;20961;-62
2022/01/24 07:57:44;;;;;;;16.33;12.83;;;1.40;99.90;;;;;;5069349;28;20577;-62
2022/01/24 08:00:12;;;;;;;16.30;13.77;;;1.50;99.90;;;;;;5068879;28;20462;-62
2022/01/24 08:02:39;;;;;;;15.23;12.27;;;1.50;99.90;;;;;;5069572;28;20498;-63
2022/01/24 08:05:07;;;;;;;16.27;11.60;;;1.50;99.90;;;;;;5069550;28;20447;-62
2022/01/24 08:07:35;;;;;;;18.47;12.07;;;1.50;99.90;;;;;;5069373;28;20446;-62
2022/01/24 08:10:02;;;;;;;16.20;11.53;;;1.60;99.90;;;;;;5068944;28;20836;-62
2022/01/24 08:12:29;;;;;;;18.23;13.17;;;1.70;99.90;;;;;;5068941;28;20530;-62
2022/01/24 08:14:59;;;;;;;15.73;12.10;;;1.70;99.90;;;;;;5068771;28;20459;-62
2022/01/24 08:17:26;;;;;;;19.70;12.67;;;1.70;99.90;;;;;;5069118;28;20479;-62
2022/01/24 08:19:53;;;;;;;15.47;11.67;;;1.80;99.90;;;;;;5068792;28;20865;-62
2022/01/24 08:22:20;;;;;;;15.90;12.20;;;1.90;99.90;;;;;;5068865;28;20828;-61
2022/01/24 08:24:49;;;;;;;15.07;11.83;;;2.00;99.90;;;;;;5068944;28;20451;-62
2022/01/24 08:27:18;;;;;;;13.80;10.83;;;2.20;99.90;;;;;;5068801;28;20452;-62
2022/01/24 08:29:46;;;;;;;15.60;11.60;;;2.30;99.90;;;;;;5068488;28;20836;-62
2022/01/24 08:32:13;;;;;;;15.30;12.20;;;2.30;99.90;;;;;;5068826;28;20472;-62
2022/01/24 08:34:40;;;;;;;15.10;12.53;;;2.40;99.90;;;;;;5068893;28;20482;-62
2022/01/24 08:37:08;;;;;;;16.13;12.20;;;2.50;99.90;;;;;;5070798;28;20493;-62
2022/01/24 08:39:34;;;;;;;13.00;10.83;;;2.70;99.90;;;;;;5072510;28;20443;-62
2022/01/24 08:42:12;;;;;;;11.73;9.77;;;2.70;99.90;;;;;;5072613;28;20489;-62
2022/01/24 08:47:25;;;;;;;12.63;9.63;;;2.70;99.90;;;;;;5072751;28;20414;-62
2022/01/24 08:49:52;;;;;;;12.83;10.50;;;2.80;99.90;;;;;;5072277;28;20964;-61
2022/01/24 08:52:19;;;;;;;13.50;11.13;;;3.00;99.90;;;;;;5072476;28;20473;-61
2022/01/24 08:54:47;;;;;;;13.30;10.07;;;3.00;99.90;;;;;;5072589;28;20439;-61
2022/01/24 08:57:15;;;;;;;16.40;12.40;;;3.10;99.90;;;;;;5072493;28;20483;-61
2022/01/24 08:59:42;;;;;;;14.90;11.23;;;3.20;99.90;;;;;;5071943;28;21090;-61
2022/01/24 09:02:12;;;;;;;13.87;10.63;;;3.30;99.90;;;;;;5072248;28;20850;-61
2022/01/24 09:04:38;;;;;;;15.90;10.90;;;3.50;99.90;;;;;;5072231;28;20443;-62
2022/01/24 09:07:06;;;;;;;12.90;10.20;;;3.50;99.90;;;;;;5071982;28;20471;-62
2022/01/24 09:09:35;;;;;;;12.07;10.33;;;3.60;99.90;;;;;;5071789;28;20454;-62
2022/01/24 09:12:02;;;;;;;12.10;10.20;;;3.70;99.90;;;;;;5071968;28;21367;-62
2022/01/24 09:14:30;;;;;;;13.00;10.27;;;3.90;99.90;;;;;;5071887;28;20470;-62
2022/01/24 09:16:57;;;;;;;12.53;11.13;;;4.00;99.90;;;;;;5072391;28;20862;-62
2022/01/24 09:19:24;;;;;;;13.37;10.90;;;4.10;99.90;;;;;;5072244;28;20440;-62
2022/01/24 09:21:51;;;;;;;13.60;11.93;;;4.00;99.90;;;;;;5072165;28;20555;-62
2022/01/24 09:24:18;;;;;;;14.10;11.87;;;4.10;99.90;;;;;;5071898;28;20447;-65
2022/01/24 09:26:45;;;;;;;15.50;12.23;;;4.30;99.90;;;;;;5071873;28;20840;-62
2022/01/24 09:29:12;;;;;;;12.30;10.00;;;4.40;99.90;;;;;;5071678;28;20443;-62
2022/01/24 09:31:40;;;;;;;13.83;11.40;;;4.40;99.90;;;;;;5071840;28;20630;-62
2022/01/24 09:34:07;;;;;;;12.90;10.60;;;4.60;99.90;;;;;;5071619;28;20981;-62
2022/01/24 09:36:34;;;;;;;14.07;11.07;;;4.90;99.90;;;;;;5071652;28;20452;-62
2022/01/24 09:39:00;;;;;;;11.50;10.30;;;5.20;99.90;;;;;;5071472;28;20574;-62
2022/01/24 09:41:27;;;;;;;11.50;9.63;;;5.50;99.90;;;;;;5071363;28;20443;-63
2022/01/24 09:43:54;;;;;;;10.73;9.57;;;5.80;99.90;;;;;;5071634;28;20509;-62
2022/01/24 09:46:21;;;;;;;11.83;9.80;;;6.00;99.90;;;;;;5071598;28;20447;-62
2022/01/24 09:48:49;;;;;;;9.50;8.47;;;6.30;99.90;;;;;;5070886;28;20439;-62
2022/01/24 09:51:16;;;;;;;10.73;8.70;;;6.70;99.90;;;;;;5071169;28;20547;-62
2022/01/24 09:53:43;;;;;;;10.93;9.50;;;6.80;99.90;;;;;;5071530;28;20444;-63
2022/01/24 09:56:10;;;;;;;10.77;9.57;;;7.10;99.90;;;;;;5071472;28;20810;-63
2022/01/24 09:58:38;;;;;;;13.27;9.07;;;7.40;99.90;;;;;;5071330;28;20483;-62
2022/01/24 10:01:08;;;;;;;14.47;9.30;;;7.40;99.90;;;;;;5071046;28;20522;-62
2022/01/24 10:03:35;;;;;;;10.17;9.07;;;7.40;99.90;;;;;;5071233;28;20448;-62
2022/01/24 10:06:04;;;;;;;10.83;8.93;;;7.50;99.90;;;;;;5071185;28;20448;-62
2022/01/24 10:08:32;;;;;;;9.10;8.20;;;7.90;99.90;;;;;;5071366;28;20450;-63
2022/01/24 10:11:01;;;;;;;8.17;7.37;;;8.30;99.90;;;;;;5070798;28;20458;-62
2022/01/24 10:16:26;;;;;;;7.40;6.60;;;9.20;99.90;;;;;;5071186;28;21048;-63
2022/01/24 10:19:00;;;;;;;7.10;6.40;;;9.50;99.90;;;;;;5071169;28;20545;-63
2022/01/24 10:21:28;;;;;;;8.53;6.30;;;9.70;99.90;;;;;;5070922;28;20454;-62
2022/01/24 10:23:56;;;;;;;6.90;6.27;;;9.80;99.90;;;;;;5071071;28;20448;-63
2022/01/24 10:26:25;;;;;;;7.00;5.93;;;10.00;99.90;;;;;;5071248;28;20444;-63
2022/01/24 10:28:52;;;;;;;6.70;6.00;;;10.30;99.90;;;;;;5071170;28;20446;-62
2022/01/24 10:31:24;;;;;;;6.43;5.70;;;10.60;99.90;;;;;;5070656;28;20532;-62
2022/01/24 10:34:05;;;;;;;6.27;5.67;;;10.90;99.90;;;;;;5071112;28;20444;-63
2022/01/24 10:36:42;;;;;;;6.53;5.47;;;11.20;99.90;;;;;;5070969;28;21277;-63
2022/01/24 10:39:20;;;;;;;7.23;5.80;;;11.50;99.90;;;;;;5070923;28;20479;-63
2022/01/24 10:42:09;;;;;;;8.07;5.90;;;11.90;99.90;;;;;;5070974;28;20570;-63
2022/01/24 10:44:37;;;;;;;6.33;5.40;;;11.70;99.90;;;;;;5070834;28;20483;-63
2022/01/24 10:47:16;;;;;;;6.60;5.90;;;11.70;99.90;;;;;;5070503;28;20450;-63
2022/01/24 10:49:44;;;;;;;6.00;4.90;;;11.90;99.90;;;;;;5070033;28;20491;-63
2022/01/24 10:52:14;;;;;;;6.07;5.40;;;12.00;99.90;;;;;;5070204;28;21058;-63
2022/01/24 10:54:41;;;;;;;5.07;4.50;;;12.50;99.90;;;;;;5070078;28;20483;-63
2022/01/24 10:57:08;;;;;;;5.93;5.33;;;13.10;99.90;;;;;;5069968;28;20451;-63
2022/01/24 10:59:36;;;;;;;5.87;4.70;;;13.40;99.40;;;;;;5068766;28;20442;-63
2022/01/24 11:02:04;;;;;;;11.97;4.80;;;13.40;99.10;;;;;;5069995;28;20464;-63
2022/01/24 11:04:33;;;;;;;6.27;5.27;;;13.60;98.50;;;;;;5069959;28;20955;-63
2022/01/24 11:07:04;;;;;;;6.27;5.60;;;13.80;98.30;;;;;;5069850;28;20456;-62
2022/01/24 11:09:33;;;;;;;5.00;4.50;;;13.60;98.40;;;;;;5069732;28;20538;-63
2022/01/24 11:12:06;;;;;;;4.93;4.37;;;13.80;98.30;;;;;;5069688;28;20550;-62
2022/01/24 11:14:33;;;;;;;5.37;4.60;;;13.80;98.00;;;;;;5069889;28;20466;-63
2022/01/24 11:17:00;;;;;;;5.03;4.53;;;12.70;97.50;;;;;;5070198;28;20843;-63
2022/01/24 11:19:30;;;;;;;4.53;4.13;;;11.70;99.70;;;;;;5069551;28;20479;-63
2022/01/24 11:21:58;;;;;;;6.27;5.20;;;10.90;99.90;;;;;;5069648;28;20479;-63
2022/01/24 11:24:36;;;;;;;5.67;4.83;;;10.40;99.90;;;;;;5069497;28;20535;-63
2022/01/24 11:27:04;;;;;;;6.43;5.33;;;9.80;99.90;;;;;;5069837;28;20535;-63
2022/01/24 11:29:32;;;;;;;6.07;4.97;;;9.30;99.90;;;;;;5069580;28;20822;-62
2022/01/24 11:32:07;;;;;;;6.60;4.77;;;9.00;99.90;;;;;;5069913;28;20478;-62
2022/01/24 11:34:38;;;;;;;6.20;4.80;;;8.60;99.90;;;;;;5070033;28;20458;-62
2022/01/24 11:37:06;;;;;;;5.90;5.30;;;8.30;99.90;;;;;;5069699;28;20444;-62
2022/01/24 11:39:34;;;;;;;7.63;5.50;;;8.10;99.90;;;;;;5069152;28;21001;-62
2022/01/24 11:42:02;;;;;;;6.67;4.37;;;7.90;99.90;;;;;;5069320;28;20558;-62
2022/01/24 11:44:49;;;;;;;5.80;4.50;;;7.70;99.90;;;;;;5069453;28;21058;-62
2022/01/24 11:47:22;;;;;;;5.33;4.17;;;7.70;99.90;;;;;;5069335;28;20883;-63
2022/01/24 11:49:53;;;;;;;6.23;5.47;;;7.60;99.90;;;;;;5069331;28;20440;-63
2022/01/24 11:52:28;;;;;;;5.80;4.97;;;7.70;99.90;;;;;;5069226;28;20471;-62
2022/01/24 11:55:13;;;;;;;5.67;4.83;;;7.60;99.90;;;;;;5069320;28;20939;-62
2022/01/24 11:57:40;;;;;;;5.30;4.67;;;7.40;99.90;;;;;;5069444;28;20540;-62
2022/01/24 12:00:22;;;;;;;5.47;4.47;;;7.40;99.90;;;;;;5069069;28;20451;-62
2022/01/24 12:02:52;;;;;;;6.83;4.10;;;7.40;99.90;;;;;;5069420;28;20464;-62
2022/01/24 12:05:20;;;;;;;5.60;4.30;;;7.40;99.90;;;;;;5069541;28;20455;-62
2022/01/24 12:07:49;;;;;;;5.43;4.20;;;7.50;99.90;;;;;;5069191;28;20534;-63
2022/01/24 12:10:41;;;;;;;6.90;4.30;;;7.30;99.90;;;;;;5068821;28;20450;-62
2022/01/24 12:13:13;;;;;;;7.23;4.93;;;7.30;99.90;;;;;;5069106;28;20992;-63
2022/01/24 12:16:00;;;;;;;6.70;4.70;;;7.30;99.90;;;;;;5069100;28;20460;-62
2022/01/24 12:18:50;;;;;;;5.33;4.50;;;7.40;99.90;;;;;;5069122;28;20493;-62
2022/01/24 12:21:23;;;;;;;6.30;4.53;;;7.40;99.90;;;;;;5068675;28;20455;-62
2022/01/24 12:23:51;;;;;;;5.53;4.40;;;7.40;99.90;;;;;;5069265;28;20455;-63
2022/01/24 12:26:25;;;;;;;6.70;5.30;;;7.40;99.90;;;;;;5069261;28;20451;-62
2022/01/24 12:28:57;;;;;;;5.00;4.50;;;7.40;99.90;;;;;;5069010;28;20447;-62
2022/01/24 12:31:29;;;;;;;7.20;4.37;;;7.40;99.90;;;;;;5068594;28;20443;-62
2022/01/24 12:34:15;;;;;;;6.73;4.07;;;7.50;99.90;;;;;;5069291;28;20451;-62
2022/01/24 12:37:11;;;;;;;6.23;4.37;;;7.40;99.90;;;;;;5066365;28;20477;-62
2022/01/24 12:39:48;;;;;;;6.30;4.30;;;7.50;99.90;;;;;;5068249;28;20475;-62
2022/01/24 12:42:26;;;;;;;4.87;4.20;;;7.50;99.90;;;;;;5069013;28;20475;-62
2022/01/24 12:47:39;;;;;;;4.70;3.50;;;7.50;99.90;;;;;;5068790;28;20422;-62
2022/01/24 12:50:10;;;;;;;8.93;4.67;;;7.50;99.90;;;;;;5068524;28;20446;-63
2022/01/24 12:52:38;;;;;;;4.50;3.90;;;7.40;99.90;;;;;;5068605;28;20467;-63
2022/01/24 12:55:07;;;;;;;4.70;4.07;;;7.40;99.90;;;;;;5068692;28;20443;-63
2022/01/24 12:57:39;;;;;;;5.13;4.00;;;7.40;99.90;;;;;;5068464;28;20450;-63
2022/01/24 13:00:10;;;;;;;5.80;3.73;;;7.40;99.90;;;;;;5068279;28;20991;-66
2022/01/24 13:02:39;;;;;;;5.37;4.17;;;7.50;99.90;;;;;;5068660;28;20467;-63
2022/01/24 13:05:09;;;;;;;4.97;3.77;;;7.60;99.90;;;;;;5068256;28;20527;-63
2022/01/24 13:07:37;;;;;;;4.40;3.83;;;7.50;99.90;;;;;;5062810;28;20440;-62
2022/01/24 13:10:11;;;;;;;5.80;3.93;;;7.60;99.90;;;;;;5068454;28;20951;-62
2022/01/24 13:12:39;;;;;;;4.80;4.03;;;7.60;99.90;;;;;;5069070;28;20471;-62
2022/01/24 13:15:20;;;;;;;6.13;3.80;;;7.60;99.90;;;;;;5068816;28;20533;-63
2022/01/24 13:21:06;;;;;;;5.57;3.90;;;7.60;99.90;;;;;;5068018;28;20438;-63
2022/01/24 13:23:33;;;;;;;6.50;3.60;;;7.50;99.90;;;;;;5070800;28;20471;-62
2022/01/24 13:26:00;;;;;;;7.20;3.70;;;7.40;99.90;;;;;;5072089;28;20467;-62
2022/01/24 13:28:27;;;;;;;6.27;4.90;;;7.40;99.90;;;;;;5072037;28;20440;-63
2022/01/24 13:31:00;;;;;;;7.33;4.33;;;7.40;99.90;;;;;;5071677;28;20533;-63
2022/01/24 13:33:30;;;;;;;5.50;4.53;;;7.40;99.90;;;;;;5071572;28;20505;-62
2022/01/24 13:35:59;;;;;;;6.23;5.10;;;7.40;99.90;;;;;;5071404;28;20856;-62
2022/01/24 13:38:28;;;;;;;5.37;4.70;;;7.40;99.90;;;;;;5071490;28;20841;-63
2022/01/24 13:40:58;;;;;;;4.67;4.00;;;7.30;99.90;;;;;;5071153;28;20791;-62
2022/01/24 13:43:41;;;;;;;6.80;4.77;;;7.30;99.90;;;;;;5071441;28;20467;-62
2022/01/24 13:46:11;;;;;;;5.97;4.93;;;7.30;99.90;;;;;;5070990;28;20471;-63
2022/01/24 13:48:47;;;;;;;5.83;4.33;;;7.20;99.90;;;;;;5068817;28;20516;-63
2022/01/24 13:51:16;;;;;;;5.37;4.50;;;7.20;99.90;;;;;;5067892;28;20493;-63
2022/01/24 13:53:46;;;;;;;8.60;4.87;;;7.20;99.90;;;;;;5071356;28;20443;-62
2022/01/24 13:56:19;;;;;;;7.13;5.47;;;7.30;99.90;;;;;;5071255;28;20471;-63
2022/01/24 13:59:18;;;;;;;7.60;5.37;;;7.30;99.90;;;;;;5071361;28;21012;-62
2022/01/24 14:02:00;;;;;;;5.57;4.57;;;7.30;99.90;;;;;;5071571;28;20886;-62
2022/01/24 14:04:31;;;;;;;7.23;4.93;;;7.30;99.90;;;;;;5055197;28;20455;-63
2022/01/24 14:07:00;;;;;;;6.50;5.80;;;7.30;99.90;;;;;;5068796;28;20539;-67